createdAt,value
2023-01-04T00:01:23.273Z,3.97
2023-01-04T00:03:51.153Z,3.63
2023-01-04T00:06:19.387Z,3.80
2023-01-04T00:08:47.052Z,3.40
2023-01-04T00:11:20.498Z,3.60
2023-01-04T00:13:49.588Z,3.70
2023-01-04T00:16:20.268Z,3.73
2023-01-04T00:18:47.897Z,4.33
2023-01-04T00:21:20.991Z,3.70
2023-01-04T00:23:50.673Z,3.63
2023-01-04T00:26:24.023Z,3.37
2023-01-04T00:29:09.563Z,4.23
2023-01-04T00:31:37.089Z,3.80
2023-01-04T00:34:05.652Z,4.00
2023-01-04T00:36:33.962Z,3.60
2023-01-04T00:39:09.695Z,3.83
2023-01-04T00:44:27.300Z,4.33
2023-01-04T00:46:54.904Z,4.37
2023-01-04T00:49:22.375Z,4.10
2023-01-04T00:51:49.918Z,3.47
2023-01-04T00:54:17.924Z,3.57
2023-01-04T00:56:45.696Z,4.20
2023-01-04T00:59:15.171Z,4.20
2023-01-04T01:01:43.802Z,3.90
2023-01-04T01:04:15.957Z,3.80
2023-01-04T01:06:43.766Z,4.67
2023-01-04T01:09:11.701Z,4.47
2023-01-04T01:11:40.176Z,4.17
2023-01-04T01:14:11.363Z,4.40
2023-01-04T01:16:54.382Z,4.43
2023-01-04T01:19:24.528Z,4.47
2023-01-04T01:21:51.869Z,3.80
2023-01-04T01:24:20.265Z,4.43
2023-01-04T01:26:48.665Z,4.30
2023-01-04T01:29:15.935Z,4.43
2023-01-04T01:31:43.428Z,4.70
2023-01-04T01:34:10.960Z,4.80
2023-01-04T01:36:38.453Z,4.43
2023-01-04T01:39:06.317Z,4.43
2023-01-04T01:41:35.311Z,5.03
2023-01-04T01:44:04.312Z,4.43
2023-01-04T01:46:31.710Z,4.40
2023-01-04T01:49:04.789Z,5.57
2023-01-04T01:51:33.906Z,5.37
2023-01-04T01:54:10.134Z,6.00
2023-01-04T01:56:39.748Z,5.10
2023-01-04T01:59:09.512Z,5.87
2023-01-04T02:01:37.027Z,5.70
2023-01-04T02:04:05.336Z,6.80
2023-01-04T02:06:43.784Z,7.97
2023-01-04T02:09:12.661Z,6.93
2023-01-04T02:11:40.385Z,7.80
2023-01-04T02:14:27.339Z,9.07
2023-01-04T02:17:12.883Z,9.17
2023-01-04T02:20:02.816Z,8.43
2023-01-04T02:23:18.875Z,9.17
2023-01-04T02:26:23.817Z,8.10
2023-01-04T02:29:32.867Z,8.77
2023-01-04T02:32:17.495Z,9.10
2023-01-04T02:34:59.020Z,9.67
2023-01-04T02:37:42.056Z,9.87
2023-01-04T02:40:27.985Z,9.07
2023-01-04T02:43:42.506Z,8.50
2023-01-04T02:46:23.199Z,8.53
2023-01-04T02:49:09.428Z,8.43
2023-01-04T02:51:38.347Z,8.60
2023-01-04T02:54:22.535Z,8.10
2023-01-04T02:57:07.445Z,7.70
2023-01-04T03:00:10.817Z,8.17
2023-01-04T03:03:15.115Z,7.17
2023-01-04T03:06:16.406Z,8.37
2023-01-04T03:09:07.830Z,8.93
2023-01-04T03:12:02.616Z,9.23
2023-01-04T03:14:37.010Z,9.03
2023-01-04T03:17:11.542Z,8.43
2023-01-04T03:19:57.481Z,9.10
2023-01-04T03:22:57.644Z,8.53
2023-01-04T03:25:49.895Z,7.97
2023-01-04T03:28:38.241Z,7.40
2023-01-04T03:31:36.829Z,6.73
2023-01-04T03:34:23.798Z,7.63
2023-01-04T03:37:18.345Z,7.37
2023-01-04T03:40:23.956Z,7.30
2023-01-04T03:43:20.895Z,8.63
2023-01-04T03:46:17.305Z,7.77
2023-01-04T03:49:09.355Z,8.17
2023-01-04T03:51:37.968Z,9.03
2023-01-04T03:54:18.686Z,10.10
2023-01-04T03:56:47.674Z,8.73
2023-01-04T03:59:15.240Z,10.53
2023-01-04T04:01:43.996Z,10.80
2023-01-04T04:04:30.378Z,10.97
2023-01-04T04:07:16.400Z,10.90
2023-01-04T04:09:43.628Z,11.00
2023-01-04T04:12:10.982Z,11.57
2023-01-04T04:14:38.216Z,10.87
2023-01-04T04:17:05.662Z,10.67
2023-01-04T04:19:33.041Z,10.70
2023-01-04T04:22:00.475Z,11.00
2023-01-04T04:24:27.853Z,10.80
2023-01-04T04:26:56.151Z,10.97
2023-01-04T04:29:24.551Z,10.53
2023-01-04T04:31:52.176Z,10.47
2023-01-04T04:34:19.691Z,9.93
2023-01-04T04:36:47.028Z,11.73
2023-01-04T04:39:14.343Z,10.87
2023-01-04T04:41:42.063Z,12.00
2023-01-04T04:44:15.143Z,9.93
2023-01-04T04:46:43.591Z,10.27
2023-01-04T04:49:11.189Z,10.23
2023-01-04T04:51:38.600Z,10.47
2023-01-04T04:54:07.688Z,10.30
2023-01-04T04:56:37.072Z,10.10
2023-01-04T04:59:05.010Z,10.30
2023-01-04T05:01:32.661Z,10.23
2023-01-04T05:04:00.219Z,8.53
2023-01-04T05:06:28.253Z,8.20
2023-01-04T05:08:55.778Z,9.00
2023-01-04T05:11:41.963Z,9.20
2023-01-04T05:14:10.398Z,8.10
2023-01-04T05:16:37.881Z,8.83
2023-01-04T05:19:05.251Z,7.60
2023-01-04T05:21:32.863Z,9.67
2023-01-04T05:24:00.399Z,8.50
2023-01-04T05:26:27.789Z,8.10
2023-01-04T05:28:55.383Z,8.10
2023-01-04T05:31:23.173Z,9.40
2023-01-04T05:33:50.571Z,9.17
2023-01-04T05:36:18.051Z,9.07
2023-01-04T05:38:45.474Z,8.97
2023-01-04T05:41:31.296Z,8.53
2023-01-04T05:43:58.920Z,9.37
2023-01-04T05:46:26.332Z,8.90
2023-01-04T05:48:53.751Z,9.33
2023-01-04T05:51:21.139Z,8.97
2023-01-04T05:53:48.475Z,7.93
2023-01-04T05:56:15.849Z,9.70
2023-01-04T05:58:43.210Z,8.87
2023-01-04T06:01:10.770Z,8.17
2023-01-04T06:03:38.379Z,7.87
2023-01-04T06:06:06.198Z,7.50
2023-01-04T06:08:33.540Z,7.57
2023-01-04T06:11:00.925Z,7.33
2023-01-04T06:13:28.428Z,6.97
2023-01-04T06:15:55.786Z,6.83
2023-01-04T06:18:23.156Z,7.00
2023-01-04T06:20:51.592Z,6.27
2023-01-04T06:23:18.942Z,6.70
2023-01-04T06:25:46.396Z,7.10
2023-01-04T06:28:13.849Z,6.50
2023-01-04T06:30:41.266Z,6.70
2023-01-04T06:33:08.693Z,6.60
2023-01-04T06:35:36.177Z,6.90
2023-01-04T06:38:03.536Z,6.70
2023-01-04T06:40:30.987Z,6.63
2023-01-04T06:42:58.219Z,6.83
2023-01-04T06:45:25.889Z,7.67
2023-01-04T06:47:53.401Z,7.30
2023-01-04T06:50:20.949Z,7.20
2023-01-04T06:52:48.249Z,6.87
2023-01-04T06:55:15.674Z,7.53
2023-01-04T06:57:43.064Z,7.97
2023-01-04T07:00:11.251Z,8.00
2023-01-04T07:02:39.008Z,7.37
2023-01-04T07:05:26.332Z,7.07
2023-01-04T07:07:53.701Z,7.00
2023-01-04T07:10:21.229Z,7.17
2023-01-04T07:12:48.585Z,6.87
2023-01-04T07:15:43.259Z,7.40
2023-01-04T07:18:03.501Z,7.13
2023-01-04T07:20:30.970Z,7.17
2023-01-04T07:22:58.415Z,7.33
2023-01-04T07:25:25.797Z,8.27
2023-01-04T07:27:54.632Z,7.27
2023-01-04T07:30:23.693Z,7.20
2023-01-04T07:32:54.849Z,8.60
2023-01-04T07:35:23.481Z,6.97
2023-01-04T07:37:57.831Z,6.13
2023-01-04T07:40:27.696Z,6.77
2023-01-04T07:42:57.501Z,8.03
2023-01-04T07:45:25.578Z,7.13
2023-01-04T07:47:52.966Z,6.43
2023-01-04T07:50:20.325Z,7.67
2023-01-04T07:52:48.008Z,7.83
2023-01-04T07:55:15.486Z,7.33
2023-01-04T07:57:43.101Z,7.37
2023-01-04T08:00:11.661Z,6.73
2023-01-04T08:02:42.228Z,7.90
2023-01-04T08:05:09.798Z,6.70
2023-01-04T08:07:37.681Z,7.27
2023-01-04T08:10:05.733Z,6.80
2023-01-04T08:12:33.091Z,7.20
2023-01-04T08:15:01.192Z,6.43
2023-01-04T08:17:28.655Z,6.67
2023-01-04T08:19:56.027Z,6.83
2023-01-04T08:22:23.406Z,7.63
2023-01-04T08:24:50.755Z,7.57
2023-01-04T08:27:18.191Z,9.53
2023-01-04T08:29:45.565Z,7.13
2023-01-04T08:32:12.978Z,6.90
2023-01-04T08:34:40.518Z,7.83
2023-01-04T08:37:07.866Z,7.83
2023-01-04T08:39:36.172Z,7.73
2023-01-04T08:42:18.711Z,7.63
2023-01-04T08:44:47.957Z,7.40
2023-01-04T08:47:15.171Z,7.40
2023-01-04T08:49:42.890Z,8.07
2023-01-04T08:52:11.697Z,7.47
2023-01-04T08:54:39.064Z,6.33
2023-01-04T08:57:06.312Z,6.67
2023-01-04T08:59:33.801Z,6.87
2023-01-04T09:02:05.143Z,7.47
2023-01-04T09:04:33.346Z,7.17
2023-01-04T09:07:00.658Z,6.60
2023-01-04T09:09:29.941Z,6.63
2023-01-04T09:11:57.330Z,6.40
2023-01-04T09:14:24.521Z,7.70
2023-01-04T09:16:51.939Z,7.33
2023-01-04T09:19:22.261Z,6.60
2023-01-04T09:21:50.467Z,5.70
2023-01-04T09:24:17.991Z,6.73
2023-01-04T09:26:47.357Z,6.50
2023-01-04T09:29:14.860Z,6.23
2023-01-04T09:31:42.372Z,7.40
2023-01-04T09:34:15.109Z,6.33
2023-01-04T09:36:46.047Z,5.93
2023-01-04T09:39:21.821Z,7.37
2023-01-04T09:42:05.218Z,5.97
2023-01-04T09:47:43.409Z,5.37
2023-01-04T09:50:54.692Z,6.30
2023-01-04T09:53:28.479Z,5.43
2023-01-04T09:56:09.933Z,5.23
2023-01-04T09:58:40.564Z,5.50
2023-01-04T10:01:21.347Z,5.07
2023-01-04T10:04:09.516Z,4.70
2023-01-04T10:06:37.700Z,4.17
2023-01-04T10:09:11.786Z,4.23
2023-01-04T10:12:03.772Z,3.70
2023-01-04T10:14:47.838Z,2.77
2023-01-04T10:18:13.586Z,4.53
2023-01-04T10:23:33.600Z,2.90
2023-01-04T10:26:10.458Z,3.37
2023-01-04T10:29:18.586Z,2.80
2023-01-04T10:31:55.320Z,2.73
2023-01-04T10:34:33.046Z,3.20
2023-01-04T10:37:11.343Z,2.67
2023-01-04T10:39:38.864Z,3.80
2023-01-04T10:42:32.980Z,3.60
2023-01-04T10:45:17.745Z,3.05
2023-01-04T10:48:05.393Z,2.77
2023-01-04T10:51:02.137Z,2.67
2023-01-04T10:54:25.999Z,2.30
2023-01-04T10:57:12.531Z,2.58
2023-01-04T10:59:46.268Z,2.90
2023-01-04T11:02:40.247Z,2.90
2023-01-04T11:05:20.743Z,2.97
2023-01-04T11:07:55.633Z,2.23
2023-01-04T11:10:28.904Z,2.10
2023-01-04T11:12:56.478Z,1.98
2023-01-04T11:15:23.951Z,2.20
2023-01-04T11:17:52.029Z,1.63
2023-01-04T11:20:21.723Z,2.27
2023-01-04T11:22:58.967Z,2.30
2023-01-04T11:25:36.450Z,2.90
2023-01-04T11:28:23.410Z,2.20
2023-01-04T11:31:14.393Z,2.40
2023-01-04T11:34:01.415Z,2.08
2023-01-04T11:36:31.463Z,2.27
2023-01-04T11:38:59.250Z,2.20
2023-01-04T11:41:27.631Z,1.90
2023-01-04T11:44:00.630Z,1.70
2023-01-04T11:46:29.145Z,1.70
2023-01-04T11:48:57.424Z,1.87
2023-01-04T11:51:28.704Z,1.95
2023-01-04T11:53:58.563Z,1.98
2023-01-04T11:56:30.575Z,2.03
2023-01-04T11:59:09.227Z,1.80
2023-01-04T12:01:45.447Z,1.65
2023-01-04T12:04:20.888Z,1.70
2023-01-04T12:07:02.934Z,1.98
2023-01-04T12:09:30.988Z,1.43
2023-01-04T12:12:01.472Z,1.87
2023-01-04T12:14:32.543Z,1.63
2023-01-04T12:17:13.678Z,1.73
2023-01-04T12:19:42.380Z,1.37
2023-01-04T12:22:32.684Z,1.77
2023-01-04T12:25:01.999Z,1.33
2023-01-04T12:27:29.714Z,1.05
2023-01-04T12:30:02.354Z,1.10
2023-01-04T12:32:32.847Z,1.38
2023-01-04T12:35:00.140Z,1.63
2023-01-04T12:37:49.652Z,1.27
2023-01-04T12:40:49.821Z,1.20
2023-01-04T12:43:17.307Z,1.23
2023-01-04T12:46:08.510Z,1.00
2023-01-04T12:48:55.088Z,1.13
2023-01-04T12:51:34.332Z,1.00
2023-01-04T12:54:04.491Z,1.77
2023-01-04T12:57:16.173Z,1.02
2023-01-04T13:00:03.518Z,1.17
2023-01-04T13:02:34.857Z,1.33
2023-01-04T13:05:54.066Z,1.13
2023-01-04T13:08:15.066Z,1.40
2023-01-04T13:10:48.902Z,1.20
2023-01-04T13:13:28.793Z,1.20
2023-01-04T13:16:11.768Z,1.00
2023-01-04T13:18:58.025Z,1.00
2023-01-04T13:21:34.765Z,1.08
2023-01-04T13:24:26.030Z,0.98
2023-01-04T13:26:54.525Z,0.73
2023-01-04T13:29:29.930Z,0.80
2023-01-04T13:32:19.694Z,1.45
2023-01-04T13:34:52.275Z,1.02
2023-01-04T13:37:28.225Z,1.00
2023-01-04T13:40:09.226Z,0.90
2023-01-04T13:42:39.619Z,0.70
2023-01-04T13:45:21.411Z,1.10
2023-01-04T13:47:52.212Z,1.05
2023-01-04T13:50:31.585Z,0.90
2023-01-04T13:53:06.981Z,0.77
2023-01-04T13:55:37.563Z,0.80
2023-01-04T13:58:18.398Z,0.85
2023-01-04T14:01:21.157Z,0.80
2023-01-04T14:04:02.164Z,1.25
2023-01-04T14:06:33.412Z,1.05
2023-01-04T14:09:15.660Z,1.15
2023-01-04T14:12:06.706Z,1.00
2023-01-04T14:14:40.973Z,0.73
2023-01-04T14:17:41.673Z,1.15
2023-01-04T14:20:12.707Z,1.02
2023-01-04T14:22:46.004Z,1.00
2023-01-04T14:25:34.270Z,0.85
2023-01-04T14:28:24.716Z,1.10
2023-01-04T14:31:04.522Z,0.90
2023-01-04T14:33:45.376Z,0.77
2023-01-04T14:36:19.583Z,0.93
2023-01-04T14:38:58.277Z,0.90
2023-01-04T14:41:32.989Z,1.00
2023-01-04T14:44:02.446Z,1.38
2023-01-04T14:46:31.683Z,0.85
2023-01-04T14:48:59.944Z,0.90
2023-01-04T14:51:38.510Z,1.30
2023-01-04T14:54:06.920Z,1.17
2023-01-04T14:56:34.864Z,1.15
2023-01-04T14:59:02.407Z,1.85
2023-01-04T15:01:30.117Z,1.10
2023-01-04T15:03:58.578Z,1.55
2023-01-04T15:06:26.554Z,0.80
2023-01-04T15:08:54.050Z,1.27
2023-01-04T15:11:21.574Z,0.90
2023-01-04T15:13:49.178Z,0.90
2023-01-04T15:16:18.840Z,1.27
2023-01-04T15:18:46.802Z,1.63
2023-01-04T15:21:14.831Z,0.70
2023-01-04T15:23:42.265Z,1.40
2023-01-04T15:26:11.718Z,1.45
2023-01-04T15:28:39.265Z,1.15
2023-01-04T15:31:11.599Z,1.30
2023-01-04T15:33:39.502Z,1.35
2023-01-04T15:36:10.752Z,1.10
2023-01-04T15:38:38.379Z,1.45
2023-01-04T15:41:08.505Z,1.30
2023-01-04T15:43:37.102Z,1.27
2023-01-04T15:46:09.201Z,1.10
2023-01-04T15:48:37.105Z,1.25
2023-01-04T15:51:07.786Z,1.10
2023-01-04T15:53:35.704Z,1.48
2023-01-04T15:56:11.589Z,1.10
2023-01-04T15:58:39.514Z,0.85
2023-01-04T16:01:09.402Z,1.10
2023-01-04T16:03:37.404Z,0.90
2023-01-04T16:06:10.434Z,1.30
2023-01-04T16:08:37.839Z,0.90
2023-01-04T16:11:16.639Z,1.17
2023-01-04T16:13:49.057Z,1.00
2023-01-04T16:16:18.113Z,1.38
2023-01-04T16:18:47.550Z,0.73
2023-01-04T16:21:17.938Z,1.40
2023-01-04T16:23:49.918Z,1.05
2023-01-04T16:26:17.414Z,1.08
2023-01-04T16:28:53.613Z,0.90
2023-01-04T16:31:22.406Z,0.73
2023-01-04T16:33:53.845Z,0.80
2023-01-04T16:36:21.422Z,0.80
2023-01-04T16:38:48.968Z,0.75
2023-01-04T16:41:20.745Z,0.98
2023-01-04T16:43:51.010Z,1.02
2023-01-04T16:46:22.040Z,0.70
2023-01-04T16:48:52.595Z,0.80
2023-01-04T16:51:21.075Z,0.82
2023-01-04T16:53:48.932Z,0.60
2023-01-04T16:56:18.533Z,0.57
2023-01-04T16:58:48.118Z,0.70
2023-01-04T17:01:22.685Z,0.70
2023-01-04T17:03:54.556Z,0.77
2023-01-04T17:06:24.353Z,0.85
2023-01-04T17:08:54.160Z,0.70
2023-01-04T17:14:13.667Z,0.70
2023-01-04T17:16:42.135Z,0.70
2023-01-04T17:19:09.812Z,0.75
2023-01-04T17:21:37.270Z,1.15
2023-01-04T17:24:04.869Z,0.60
2023-01-04T17:26:33.036Z,0.80
2023-01-04T17:29:01.459Z,0.80
2023-01-04T17:31:34.743Z,0.80
2023-01-04T17:34:02.844Z,0.50
2023-01-04T17:36:30.319Z,0.70
2023-01-04T17:39:00.523Z,0.75
2023-01-04T17:41:29.523Z,0.70
2023-01-04T17:44:02.609Z,0.88
2023-01-04T17:46:32.994Z,1.10
2023-01-04T17:49:31.822Z,0.70
2023-01-04T17:51:59.948Z,0.63
2023-01-04T17:54:27.467Z,0.80
2023-01-04T17:56:54.793Z,0.80
2023-01-04T17:59:22.151Z,0.85
2023-01-04T18:01:49.716Z,0.65
2023-01-04T18:04:17.091Z,0.82
2023-01-04T18:06:44.422Z,0.75
2023-01-04T18:09:15.487Z,0.90
2023-01-04T18:11:45.934Z,1.20
2023-01-04T18:14:14.657Z,0.70
2023-01-04T18:16:58.421Z,0.60
2023-01-04T18:19:28.551Z,0.55
2023-01-04T18:21:56.688Z,1.20
2023-01-04T18:24:35.955Z,0.90
2023-01-04T18:27:21.527Z,0.70
2023-01-04T18:29:51.410Z,0.90
2023-01-04T18:32:19.101Z,0.77
2023-01-04T18:34:46.336Z,1.00
2023-01-04T18:37:15.833Z,1.33
2023-01-04T18:39:43.604Z,1.00
2023-01-04T18:42:11.043Z,1.10
2023-01-04T18:44:45.695Z,1.17
2023-01-04T18:47:15.956Z,0.85
2023-01-04T18:49:43.389Z,0.70
2023-01-04T18:52:10.966Z,0.93
2023-01-04T18:54:38.182Z,0.73
2023-01-04T18:57:05.671Z,0.77
2023-01-04T18:59:33.107Z,0.85
2023-01-04T19:02:01.540Z,0.80
2023-01-04T19:04:30.947Z,1.65
2023-01-04T19:06:58.795Z,0.95
2023-01-04T19:09:26.336Z,0.90
2023-01-04T19:11:53.688Z,1.17
2023-01-04T19:14:21.102Z,1.15
2023-01-04T19:16:48.916Z,1.30
2023-01-04T19:19:16.385Z,0.80
2023-01-04T19:21:43.859Z,1.05
2023-01-04T19:24:11.104Z,1.10
2023-01-04T19:26:39.055Z,1.10
2023-01-04T19:29:08.443Z,0.90
2023-01-04T19:31:36.126Z,1.05
2023-01-04T19:34:03.992Z,1.35
2023-01-04T19:36:31.450Z,0.70
2023-01-04T19:38:58.949Z,1.17
2023-01-04T19:41:33.917Z,0.90
2023-01-04T19:44:06.676Z,0.90
2023-01-04T19:46:34.405Z,0.98
2023-01-04T19:49:02.006Z,1.00
2023-01-04T19:51:29.350Z,1.13
2023-01-04T19:53:56.741Z,1.15
2023-01-04T19:56:24.247Z,1.45
2023-01-04T19:58:51.867Z,1.42
2023-01-04T20:01:21.635Z,0.80
2023-01-04T20:03:49.352Z,1.25
2023-01-04T20:06:18.610Z,1.10
2023-01-04T20:08:46.111Z,0.90
2023-01-04T20:11:13.570Z,1.10
2023-01-04T20:13:41.231Z,1.33
2023-01-04T20:16:08.978Z,1.05
2023-01-04T20:18:37.127Z,1.00
2023-01-04T20:21:10.499Z,1.00
2023-01-04T20:23:38.584Z,0.90
2023-01-04T20:26:11.478Z,0.90
2023-01-04T20:28:41.727Z,1.20
2023-01-04T20:31:11.504Z,1.00
2023-01-04T20:33:39.223Z,0.80
2023-01-04T20:36:09.386Z,1.30
2023-01-04T20:38:40.123Z,0.70
2023-01-04T20:41:10.392Z,0.70
2023-01-04T20:43:37.686Z,0.90
2023-01-04T20:46:11.267Z,1.17
2023-01-04T20:48:39.240Z,0.95
2023-01-04T20:51:13.601Z,1.25
2023-01-04T20:53:41.688Z,0.98
2023-01-04T20:56:21.148Z,0.85
2023-01-04T20:58:49.429Z,1.05
2023-01-04T21:01:18.301Z,1.00
2023-01-04T21:03:46.198Z,1.00
2023-01-04T21:06:16.276Z,0.98
2023-01-04T21:08:44.419Z,1.10
2023-01-04T21:11:13.048Z,0.88
2023-01-04T21:13:40.753Z,1.00
2023-01-04T21:16:08.438Z,0.93
2023-01-04T21:18:37.061Z,1.08
2023-01-04T21:21:06.325Z,1.08
2023-01-04T21:23:34.007Z,0.95
2023-01-04T21:26:06.940Z,1.00
2023-01-04T21:28:35.418Z,0.73
2023-01-04T21:31:08.286Z,0.60
2023-01-04T21:33:35.570Z,0.90
2023-01-04T21:36:11.253Z,0.80
2023-01-04T21:38:38.682Z,1.13
2023-01-04T21:41:08.718Z,0.60
2023-01-04T21:43:37.163Z,0.70
2023-01-04T21:46:10.767Z,0.90
2023-01-04T21:48:38.354Z,1.05
2023-01-04T21:51:06.498Z,0.90
2023-01-04T21:53:35.652Z,0.90
2023-01-04T21:56:12.194Z,0.98
2023-01-04T21:58:40.317Z,0.70
2023-01-04T22:01:11.282Z,1.00
2023-01-04T22:03:38.972Z,0.70
2023-01-04T22:06:07.141Z,1.00
2023-01-04T22:08:35.078Z,0.85
2023-01-04T22:11:03.784Z,1.10
2023-01-04T22:13:31.383Z,1.05
2023-01-04T22:15:59.057Z,0.77
2023-01-04T22:18:26.523Z,1.02
2023-01-04T22:21:02.659Z,0.60
2023-01-04T22:23:31.646Z,0.70
2023-01-04T22:25:59.782Z,1.00
2023-01-04T22:28:33.110Z,1.00
2023-01-04T22:31:09.928Z,1.13
2023-01-04T22:33:38.197Z,1.42
2023-01-04T22:36:17.060Z,1.13
2023-01-04T22:38:49.850Z,0.73
2023-01-04T22:41:19.284Z,1.08
2023-01-04T22:43:47.366Z,1.00
2023-01-04T22:46:17.764Z,1.38
2023-01-04T22:48:45.835Z,1.13
2023-01-04T22:51:15.681Z,0.70
2023-01-04T22:53:44.217Z,0.68
2023-01-04T22:56:19.431Z,1.00
2023-01-04T22:58:54.526Z,0.80
2023-01-04T23:01:28.435Z,0.73
2023-01-04T23:03:57.760Z,0.70
2023-01-04T23:06:27.172Z,0.70
2023-01-04T23:09:01.127Z,0.82
2023-01-04T23:11:31.159Z,0.52
2023-01-04T23:13:59.082Z,0.93
2023-01-04T23:16:32.284Z,0.68
2023-01-04T23:19:02.241Z,0.95
2023-01-04T23:21:30.521Z,0.85
2023-01-04T23:23:58.271Z,0.60
2023-01-04T23:26:27.386Z,0.95
2023-01-04T23:28:55.053Z,0.77
2023-01-04T23:31:24.834Z,0.70
2023-01-04T23:33:54.367Z,0.60
2023-01-04T23:36:33.011Z,0.88
2023-01-04T23:39:02.686Z,1.00
2023-01-04T23:41:45.609Z,0.63
2023-01-04T23:44:20.260Z,1.10
2023-01-04T23:46:52.201Z,0.90
2023-01-04T23:49:19.405Z,0.85
2023-01-04T23:51:46.596Z,0.50
2023-01-04T23:54:14.225Z,1.08
2023-01-04T23:56:41.513Z,0.52
2023-01-04T23:59:09.313Z,0.80
